createdAt,value
2022-12-20T00:02:01.095Z,79.70
2022-12-20T00:04:06.541Z,79.80
2022-12-20T00:06:11.015Z,80.40
2022-12-20T00:08:14.272Z,80.30
2022-12-20T00:10:17.284Z,80.10
2022-12-20T00:12:21.701Z,80.30
2022-12-20T00:14:24.642Z,80.40
2022-12-20T00:16:29.164Z,80.40
2022-12-20T00:18:32.168Z,80.30
2022-12-20T00:20:36.425Z,80.20
2022-12-20T00:22:39.488Z,80.40
2022-12-20T00:24:42.599Z,80.20
2022-12-20T00:26:45.754Z,80.30
2022-12-20T00:28:50.360Z,80.30
2022-12-20T00:30:55.226Z,80.30
2022-12-20T00:32:58.220Z,80.50
2022-12-20T00:35:01.189Z,80.20
2022-12-20T00:37:04.097Z,80.60
2022-12-20T00:39:06.978Z,80.50
2022-12-20T00:41:12.724Z,80.60
2022-12-20T00:43:15.729Z,80.60
2022-12-20T00:45:20.418Z,80.50
2022-12-20T00:47:23.771Z,80.30
2022-12-20T00:49:26.766Z,80.30
2022-12-20T00:51:31.976Z,80.10
2022-12-20T00:53:35.555Z,80.30
2022-12-20T00:55:42.621Z,80.20
2022-12-20T00:57:45.600Z,80.20
2022-12-20T00:59:48.527Z,80.00
2022-12-20T01:01:53.303Z,80.20
2022-12-20T01:03:56.776Z,80.40
2022-12-20T01:06:01.657Z,80.40
2022-12-20T01:08:05.003Z,80.70
2022-12-20T01:10:09.303Z,80.60
2022-12-20T01:12:12.342Z,80.80
2022-12-20T01:14:16.918Z,80.80
2022-12-20T01:16:22.102Z,80.80
2022-12-20T01:18:26.517Z,80.50
2022-12-20T01:20:29.529Z,80.40
2022-12-20T01:22:32.518Z,80.70
2022-12-20T01:24:35.546Z,80.80
2022-12-20T01:26:38.696Z,80.80
2022-12-20T01:28:43.265Z,80.40
2022-12-20T01:30:46.443Z,80.40
2022-12-20T01:32:49.432Z,80.40
2022-12-20T01:34:55.207Z,80.50
2022-12-20T01:36:58.180Z,80.30
2022-12-20T01:39:03.530Z,80.50
2022-12-20T01:41:07.431Z,80.80
2022-12-20T01:43:13.452Z,80.90
2022-12-20T01:45:24.242Z,81.20
2022-12-20T01:47:31.024Z,81.20
2022-12-20T01:49:37.208Z,81.20
2022-12-20T01:51:45.153Z,81.50
2022-12-20T01:53:49.948Z,81.40
2022-12-20T01:55:53.273Z,81.50
2022-12-20T01:58:00.733Z,81.80
2022-12-20T02:00:04.985Z,81.90
2022-12-20T02:02:10.941Z,81.70
2022-12-20T02:04:14.329Z,81.70
2022-12-20T02:06:19.474Z,81.50
2022-12-20T02:08:23.765Z,81.60
2022-12-20T02:10:34.502Z,81.50
2022-12-20T02:12:42.514Z,81.40
2022-12-20T02:15:02.161Z,81.70
2022-12-20T02:17:14.023Z,81.70
2022-12-20T02:19:43.086Z,81.70
2022-12-20T02:21:49.793Z,81.60
2022-12-20T02:24:22.439Z,81.10
2022-12-20T02:27:02.434Z,81.50
2022-12-20T02:29:19.855Z,81.70
2022-12-20T02:31:28.575Z,81.60
2022-12-20T02:33:31.662Z,81.50
2022-12-20T02:35:39.701Z,81.80
2022-12-20T02:37:49.937Z,81.90
2022-12-20T02:39:52.901Z,81.80
2022-12-20T02:41:58.667Z,81.70
2022-12-20T02:44:23.137Z,81.90
2022-12-20T02:46:28.525Z,81.80
2022-12-20T02:48:35.139Z,81.60
2022-12-20T02:50:40.830Z,81.70
2022-12-20T02:52:43.807Z,81.60
2022-12-20T02:54:46.930Z,81.60
2022-12-20T02:56:54.214Z,81.80
2022-12-20T02:59:02.334Z,81.90
2022-12-20T03:01:11.683Z,82.10
2022-12-20T03:03:25.297Z,82.20
2022-12-20T03:05:29.074Z,81.80
2022-12-20T03:07:35.443Z,81.80
2022-12-20T03:09:40.530Z,82.00
2022-12-20T03:11:43.654Z,82.00
2022-12-20T03:13:46.535Z,82.10
2022-12-20T03:15:49.578Z,82.20
2022-12-20T03:17:52.453Z,82.10
2022-12-20T03:19:56.740Z,82.20
2022-12-20T03:22:00.223Z,82.10
2022-12-20T03:24:03.118Z,82.20
2022-12-20T03:26:06.207Z,82.30
2022-12-20T03:28:09.150Z,82.40
2022-12-20T03:30:13.185Z,82.20
2022-12-20T03:32:16.188Z,82.50
2022-12-20T03:34:19.231Z,82.40
2022-12-20T03:36:24.198Z,82.30
2022-12-20T03:38:27.130Z,82.20
2022-12-20T03:40:30.058Z,82.40
2022-12-20T03:42:33.133Z,82.40
2022-12-20T03:44:36.248Z,82.30
2022-12-20T03:46:39.329Z,82.50
2022-12-20T03:48:42.343Z,82.50
2022-12-20T03:50:45.272Z,82.60
2022-12-20T03:52:49.488Z,82.40
2022-12-20T03:54:52.473Z,82.50
2022-12-20T03:56:55.434Z,82.50
2022-12-20T03:58:58.367Z,82.60
2022-12-20T04:01:01.462Z,82.60
2022-12-20T04:03:04.583Z,82.60
2022-12-20T04:05:08.624Z,82.80
2022-12-20T04:07:12.387Z,83.00
2022-12-20T04:09:16.809Z,83.10
2022-12-20T04:11:19.772Z,83.30
2022-12-20T04:13:22.691Z,83.50
2022-12-20T04:15:25.660Z,83.70
2022-12-20T04:17:28.826Z,83.60
2022-12-20T04:19:31.908Z,83.70
2022-12-20T04:21:36.198Z,83.80
2022-12-20T04:23:41.054Z,83.90
2022-12-20T04:25:45.408Z,83.90
2022-12-20T04:27:48.347Z,83.80
2022-12-20T04:29:51.407Z,83.70
2022-12-20T04:31:54.476Z,83.70
2022-12-20T04:33:57.489Z,83.80
2022-12-20T04:36:00.373Z,83.70
2022-12-20T04:38:03.367Z,83.70
2022-12-20T04:40:07.595Z,83.50
2022-12-20T04:42:12.386Z,84.20
2022-12-20T04:44:15.296Z,83.10
2022-12-20T04:46:18.730Z,83.20
2022-12-20T04:48:55.040Z,83.10
2022-12-20T04:50:44.699Z,83.20
2022-12-20T04:53:05.017Z,83.40
2022-12-20T04:55:08.497Z,83.10
2022-12-20T04:57:12.690Z,83.10
2022-12-20T04:59:15.746Z,82.90
2022-12-20T05:01:19.734Z,83.00
2022-12-20T05:03:24.058Z,83.10
2022-12-20T05:05:27.830Z,83.00
2022-12-20T05:07:30.932Z,83.00
2022-12-20T05:09:33.829Z,82.80
2022-12-20T05:11:36.894Z,82.60
2022-12-20T05:13:41.643Z,82.50
2022-12-20T05:15:44.913Z,82.90
2022-12-20T05:17:47.993Z,82.90
2022-12-20T05:19:51.039Z,82.80
2022-12-20T05:22:11.455Z,82.60
2022-12-20T05:24:31.973Z,82.50
2022-12-20T05:26:37.734Z,82.50
2022-12-20T05:28:42.236Z,82.40
2022-12-20T05:30:45.204Z,82.40
2022-12-20T05:32:48.253Z,82.20
2022-12-20T05:34:51.331Z,82.10
2022-12-20T05:36:54.401Z,82.20
2022-12-20T05:39:03.618Z,82.00
2022-12-20T05:41:08.602Z,81.60
2022-12-20T05:43:11.732Z,81.70
2022-12-20T05:45:16.132Z,82.00
2022-12-20T05:47:19.009Z,82.00
2022-12-20T05:49:21.967Z,82.00
2022-12-20T05:51:24.956Z,81.90
2022-12-20T05:53:27.959Z,81.80
2022-12-20T05:55:31.869Z,81.70
2022-12-20T05:57:35.005Z,81.60
2022-12-20T05:59:38.027Z,81.70
2022-12-20T06:01:42.476Z,81.60
2022-12-20T06:03:46.074Z,81.70
2022-12-20T06:05:49.163Z,81.40
2022-12-20T06:07:52.415Z,81.20
2022-12-20T06:09:55.545Z,81.30
2022-12-20T06:11:58.691Z,81.30
2022-12-20T06:14:01.717Z,81.10
2022-12-20T06:16:05.131Z,81.00
2022-12-20T06:18:09.735Z,81.00
2022-12-20T06:20:13.340Z,81.10
2022-12-20T06:22:16.258Z,81.20
2022-12-20T06:24:19.285Z,81.00
2022-12-20T06:26:23.300Z,81.00
2022-12-20T06:28:26.443Z,80.80
2022-12-20T06:30:33.824Z,81.10
2022-12-20T06:32:37.051Z,80.80
2022-12-20T06:34:41.443Z,80.70
2022-12-20T06:36:44.589Z,80.60
2022-12-20T06:38:47.679Z,80.30
2022-12-20T06:40:50.774Z,80.40
2022-12-20T06:42:54.013Z,80.50
2022-12-20T06:44:57.027Z,80.30
2022-12-20T06:47:00.204Z,80.20
2022-12-20T06:49:03.180Z,80.40
2022-12-20T06:51:07.515Z,80.20
2022-12-20T06:53:10.418Z,80.10
2022-12-20T06:55:13.470Z,80.40
2022-12-20T06:57:16.512Z,80.10
2022-12-20T06:59:19.703Z,80.30
2022-12-20T07:01:22.776Z,80.30
2022-12-20T07:03:26.082Z,79.80
2022-12-20T07:05:29.208Z,79.90
2022-12-20T07:07:37.265Z,80.00
2022-12-20T07:09:43.703Z,80.20
2022-12-20T07:11:46.680Z,80.00
2022-12-20T07:13:50.239Z,79.90
2022-12-20T07:15:59.270Z,80.00
2022-12-20T07:18:02.346Z,79.90
2022-12-20T07:20:12.943Z,79.90
2022-12-20T07:22:16.860Z,79.70
2022-12-20T07:24:21.283Z,79.50
2022-12-20T07:26:24.209Z,79.50
2022-12-20T07:28:29.402Z,79.50
2022-12-20T07:30:32.600Z,79.60
2022-12-20T07:32:35.696Z,79.60
2022-12-20T07:34:39.002Z,79.60
2022-12-20T07:36:42.626Z,79.70
2022-12-20T07:38:45.628Z,79.40
2022-12-20T07:40:50.609Z,79.70
2022-12-20T07:42:53.568Z,79.60
2022-12-20T07:44:56.706Z,79.50
2022-12-20T07:46:59.896Z,79.50
2022-12-20T07:49:03.004Z,79.30
2022-12-20T07:51:10.296Z,79.40
2022-12-20T07:53:13.231Z,79.50
2022-12-20T07:55:16.434Z,79.40
2022-12-20T07:57:24.687Z,79.60
2022-12-20T07:59:34.500Z,79.40
2022-12-20T08:01:37.791Z,79.60
2022-12-20T08:03:45.662Z,79.50
2022-12-20T08:05:52.262Z,79.80
2022-12-20T08:07:59.561Z,79.90
2022-12-20T08:10:03.056Z,80.20
2022-12-20T08:12:06.576Z,80.00
2022-12-20T08:14:11.645Z,80.80
2022-12-20T08:16:14.825Z,80.20
2022-12-20T08:18:17.841Z,80.10
2022-12-20T08:20:20.953Z,80.10
2022-12-20T08:22:24.332Z,80.30
2022-12-20T08:24:27.270Z,79.90
2022-12-20T08:26:30.320Z,79.90
2022-12-20T08:28:33.788Z,80.00
2022-12-20T08:30:38.602Z,80.20
2022-12-20T08:32:41.553Z,80.10
2022-12-20T08:34:44.540Z,79.90
2022-12-20T08:36:47.540Z,80.10
2022-12-20T08:38:50.664Z,80.10
2022-12-20T08:40:53.659Z,80.30
2022-12-20T08:42:56.589Z,79.90
2022-12-20T08:44:59.541Z,79.90
2022-12-20T08:47:03.886Z,79.90
2022-12-20T08:49:07.522Z,79.80
2022-12-20T08:51:12.103Z,79.70
2022-12-20T08:53:15.087Z,79.80
2022-12-20T08:55:22.002Z,79.70
2022-12-20T08:57:27.669Z,79.80
2022-12-20T08:59:30.616Z,79.40
2022-12-20T09:01:34.737Z,79.30
2022-12-20T09:03:40.505Z,79.30
2022-12-20T09:05:48.024Z,79.30
2022-12-20T09:07:50.905Z,79.20
2022-12-20T09:09:53.934Z,79.20
2022-12-20T09:11:57.371Z,79.00
2022-12-20T09:14:00.672Z,79.10
2022-12-20T09:16:04.546Z,79.00
2022-12-20T09:18:07.700Z,79.00
2022-12-20T09:20:12.684Z,78.90
2022-12-20T09:22:15.634Z,78.70
2022-12-20T09:24:18.608Z,79.70
2022-12-20T09:26:22.548Z,78.80
2022-12-20T09:28:25.439Z,78.80
2022-12-20T09:30:28.405Z,78.50
2022-12-20T09:32:31.373Z,78.80
2022-12-20T09:34:34.254Z,79.10
2022-12-20T09:36:38.686Z,78.90
2022-12-20T09:38:41.636Z,78.90
2022-12-20T09:40:48.438Z,78.70
2022-12-20T09:42:53.276Z,78.50
2022-12-20T09:45:02.309Z,78.60
2022-12-20T09:47:10.901Z,78.80
2022-12-20T09:49:18.204Z,78.60
2022-12-20T09:51:39.189Z,78.60
2022-12-20T09:53:54.150Z,79.00
2022-12-20T09:56:04.290Z,79.00
2022-12-20T09:58:22.545Z,78.90
2022-12-20T10:00:25.467Z,79.10
2022-12-20T10:04:55.403Z,78.80
2022-12-20T10:07:13.292Z,78.90
2022-12-20T10:09:33.812Z,79.20
2022-12-20T10:11:54.883Z,78.90
2022-12-20T10:14:07.224Z,78.70
2022-12-20T10:16:23.227Z,78.40
2022-12-20T10:18:41.692Z,78.60
2022-12-20T10:20:55.302Z,78.40
2022-12-20T10:23:04.439Z,78.20
2022-12-20T10:25:18.231Z,78.50
2022-12-20T10:27:22.425Z,78.70
2022-12-20T10:29:25.323Z,78.10
2022-12-20T10:31:28.592Z,78.70
2022-12-20T10:33:32.632Z,78.20
2022-12-20T10:35:40.508Z,78.80
2022-12-20T10:38:09.938Z,78.70
2022-12-20T10:40:53.285Z,78.50
2022-12-20T10:42:51.748Z,78.50
2022-12-20T10:44:55.776Z,78.60
2022-12-20T10:47:01.041Z,78.40
2022-12-20T10:49:31.051Z,78.00
2022-12-20T10:51:34.307Z,77.40
2022-12-20T10:53:38.059Z,78.00
2022-12-20T10:55:43.486Z,78.00
2022-12-20T10:57:46.424Z,78.40
2022-12-20T10:59:52.784Z,78.30
2022-12-20T11:01:55.885Z,78.30
2022-12-20T11:04:01.977Z,78.20
2022-12-20T11:06:05.203Z,78.30
2022-12-20T11:08:35.319Z,78.20
2022-12-20T11:10:40.157Z,78.20
2022-12-20T11:12:54.353Z,77.90
2022-12-20T11:15:10.032Z,77.70
2022-12-20T11:17:29.294Z,77.80
2022-12-20T11:19:47.553Z,78.50
2022-12-20T11:21:55.723Z,77.90
2022-12-20T11:24:06.799Z,77.90
2022-12-20T11:26:30.154Z,78.90
2022-12-20T11:28:53.400Z,78.00
2022-12-20T11:31:10.183Z,77.90
2022-12-20T11:33:39.469Z,77.80
2022-12-20T11:35:50.622Z,77.90
2022-12-20T11:38:08.972Z,78.20
2022-12-20T11:40:25.408Z,78.10
2022-12-20T11:42:39.432Z,77.90
2022-12-20T11:45:03.522Z,77.70
2022-12-20T11:47:39.504Z,78.10
2022-12-20T11:49:59.984Z,78.10
2022-12-20T11:52:10.757Z,77.90
2022-12-20T11:54:20.338Z,77.90
2022-12-20T11:56:27.842Z,77.90
2022-12-20T11:58:38.238Z,78.00
2022-12-20T12:00:46.200Z,77.80
2022-12-20T12:02:58.658Z,78.10
2022-12-20T12:05:06.571Z,77.80
2022-12-20T12:07:14.875Z,77.50
2022-12-20T12:09:25.096Z,77.80
2022-12-20T12:12:05.980Z,78.00
2022-12-20T12:13:57.980Z,78.00
2022-12-20T12:16:09.410Z,78.60
2022-12-20T12:18:18.043Z,78.00
2022-12-20T12:20:28.677Z,78.00
2022-12-20T12:22:36.941Z,78.00
2022-12-20T12:24:44.646Z,77.80
2022-12-20T12:26:47.746Z,77.70
2022-12-20T12:28:55.693Z,78.00
2022-12-20T12:31:02.174Z,78.00
2022-12-20T12:33:16.480Z,77.80
2022-12-20T12:35:53.605Z,77.80
2022-12-20T12:38:18.637Z,77.90
2022-12-20T12:40:53.050Z,77.20
2022-12-20T12:43:20.582Z,77.20
2022-12-20T12:45:29.176Z,77.60
2022-12-20T12:47:39.001Z,77.50
2022-12-20T12:49:45.031Z,77.70
2022-12-20T12:51:53.207Z,77.60
2022-12-20T12:54:04.509Z,77.60
2022-12-20T12:56:47.165Z,77.40
2022-12-20T12:59:25.193Z,77.30
2022-12-20T13:01:49.511Z,77.00
2022-12-20T13:04:11.034Z,77.30
2022-12-20T13:06:55.028Z,77.60
2022-12-20T13:09:18.532Z,77.40
2022-12-20T13:11:31.242Z,77.30
2022-12-20T13:13:34.569Z,77.20
2022-12-20T13:16:11.387Z,77.00
2022-12-20T13:18:25.703Z,77.20
2022-12-20T13:20:30.352Z,77.30
2022-12-20T13:22:34.772Z,77.30
2022-12-20T13:24:53.344Z,77.10
2022-12-20T13:27:02.948Z,77.30
2022-12-20T13:29:24.968Z,77.30
2022-12-20T13:31:34.567Z,77.00
2022-12-20T13:33:42.842Z,77.00
2022-12-20T13:35:56.379Z,77.20
2022-12-20T13:38:04.709Z,77.10
2022-12-20T13:40:22.608Z,77.30
2022-12-20T13:42:38.293Z,77.50
2022-12-20T13:44:46.721Z,77.40
2022-12-20T13:46:55.402Z,77.40
2022-12-20T13:49:03.077Z,77.20
2022-12-20T13:51:08.107Z,77.20
2022-12-20T13:53:20.755Z,77.80
2022-12-20T13:55:31.863Z,77.40
2022-12-20T13:57:42.846Z,77.40
2022-12-20T13:59:48.342Z,77.20
2022-12-20T14:01:53.499Z,77.10
2022-12-20T14:03:56.683Z,76.70
2022-12-20T14:06:02.755Z,76.90
2022-12-20T14:08:09.211Z,77.40
2022-12-20T14:10:23.569Z,77.00
2022-12-20T14:12:32.895Z,76.90
2022-12-20T14:14:39.773Z,76.90
2022-12-20T14:16:43.083Z,76.60
2022-12-20T14:18:50.049Z,76.60
2022-12-20T14:20:56.429Z,76.90
2022-12-20T14:23:06.335Z,76.90
2022-12-20T14:25:13.767Z,76.90
2022-12-20T14:27:20.579Z,76.40
2022-12-20T14:29:30.045Z,76.50
2022-12-20T14:31:39.338Z,77.10
2022-12-20T14:33:43.544Z,77.10
2022-12-20T14:35:48.776Z,77.50
2022-12-20T14:37:56.983Z,76.90
2022-12-20T14:40:04.129Z,77.00
2022-12-20T14:42:15.431Z,76.80
2022-12-20T14:44:23.802Z,76.80
2022-12-20T14:46:26.783Z,76.70
2022-12-20T14:48:30.123Z,77.10
2022-12-20T14:50:34.672Z,76.50
2022-12-20T14:52:40.045Z,76.70
2022-12-20T14:57:16.836Z,76.60
2022-12-20T14:59:26.962Z,76.60
2022-12-20T15:01:37.179Z,76.20
2022-12-20T15:03:51.479Z,76.50
2022-12-20T15:05:56.336Z,76.90
2022-12-20T15:08:11.571Z,76.40
2022-12-20T15:10:14.983Z,76.70
2022-12-20T15:12:17.821Z,76.60
2022-12-20T15:14:36.725Z,76.70
2022-12-20T15:16:47.929Z,76.70
2022-12-20T15:18:52.240Z,76.60
2022-12-20T15:21:03.696Z,76.40
2022-12-20T15:23:07.190Z,76.50
2022-12-20T15:25:17.154Z,76.40
2022-12-20T15:27:20.183Z,76.20
2022-12-20T15:29:26.091Z,76.50
2022-12-20T15:31:33.727Z,76.60
2022-12-20T15:33:39.157Z,76.70
2022-12-20T15:35:42.130Z,76.70
2022-12-20T15:37:45.019Z,76.60
2022-12-20T15:39:47.959Z,76.70
2022-12-20T15:41:51.310Z,76.70
2022-12-20T15:43:57.795Z,76.90
2022-12-20T15:46:01.989Z,76.90
2022-12-20T15:48:05.115Z,76.90
2022-12-20T15:50:09.524Z,77.00
2022-12-20T15:52:20.641Z,76.90
2022-12-20T15:54:27.788Z,77.00
2022-12-20T15:56:31.693Z,76.90
2022-12-20T15:58:34.858Z,77.10
2022-12-20T16:00:41.124Z,77.00
2022-12-20T16:02:46.488Z,76.90
2022-12-20T16:04:50.562Z,76.70
2022-12-20T16:06:54.040Z,76.50
2022-12-20T16:08:56.943Z,76.70
2022-12-20T16:11:00.025Z,76.60
2022-12-20T16:13:02.936Z,76.80
2022-12-20T16:15:08.232Z,76.70
2022-12-20T16:17:14.968Z,76.70
2022-12-20T16:19:19.391Z,76.70
2022-12-20T16:21:24.139Z,76.10
2022-12-20T16:23:27.440Z,76.70
2022-12-20T16:25:32.207Z,76.50
2022-12-20T16:27:35.100Z,76.70
2022-12-20T16:29:38.408Z,76.80
2022-12-20T16:31:43.254Z,76.80
2022-12-20T16:33:46.115Z,76.80
2022-12-20T16:35:50.302Z,76.80
2022-12-20T16:37:53.294Z,76.80
2022-12-20T16:39:56.759Z,76.60
2022-12-20T16:41:59.880Z,76.70
2022-12-20T16:44:04.502Z,76.70
2022-12-20T16:46:07.556Z,77.10
2022-12-20T16:48:10.415Z,76.50
2022-12-20T16:50:14.015Z,76.70
2022-12-20T16:52:20.318Z,77.00
2022-12-20T16:54:23.669Z,77.20
2022-12-20T16:56:27.155Z,76.80
2022-12-20T16:59:00.095Z,76.90
2022-12-20T17:00:53.196Z,76.70
2022-12-20T17:02:56.929Z,76.60
2022-12-20T17:05:00.317Z,76.70
2022-12-20T17:07:05.515Z,76.50
2022-12-20T17:09:09.713Z,76.70
2022-12-20T17:11:17.950Z,77.20
2022-12-20T17:13:20.705Z,76.50
2022-12-20T17:15:25.400Z,76.50
2022-12-20T17:17:28.514Z,76.50
2022-12-20T17:19:31.377Z,76.00
2022-12-20T17:23:57.554Z,76.30
2022-12-20T17:26:01.766Z,76.40
2022-12-20T17:28:06.539Z,76.10
2022-12-20T17:30:10.775Z,75.90
2022-12-20T17:32:21.269Z,76.00
2022-12-20T17:34:26.294Z,75.80
2022-12-20T17:36:35.866Z,75.90
2022-12-20T17:38:40.640Z,75.80
2022-12-20T17:40:43.887Z,75.70
2022-12-20T17:42:49.131Z,75.70
2022-12-20T17:44:52.047Z,75.80
2022-12-20T17:46:56.017Z,75.80
2022-12-20T17:48:59.457Z,75.90
2022-12-20T17:51:02.869Z,76.00
2022-12-20T17:53:05.830Z,75.90
2022-12-20T17:55:13.826Z,76.10
2022-12-20T17:57:17.192Z,76.40
2022-12-20T17:59:22.358Z,76.30
2022-12-20T18:01:26.866Z,76.30
2022-12-20T18:04:02.268Z,76.40
2022-12-20T18:05:52.757Z,76.30
2022-12-20T18:07:56.989Z,76.20
2022-12-20T18:10:00.202Z,76.20
2022-12-20T18:12:03.345Z,76.40
2022-12-20T18:14:06.207Z,76.40
2022-12-20T18:16:11.451Z,76.10
2022-12-20T18:18:14.623Z,76.30
2022-12-20T18:20:17.838Z,76.30
2022-12-20T18:22:20.779Z,76.40
2022-12-20T18:24:23.631Z,76.00
2022-12-20T18:26:28.614Z,76.10
2022-12-20T18:28:31.475Z,76.10
2022-12-20T18:30:34.435Z,75.50
2022-12-20T18:32:38.807Z,75.80
2022-12-20T18:34:41.627Z,75.80
2022-12-20T18:36:44.414Z,76.00
2022-12-20T18:38:48.583Z,75.70
2022-12-20T18:40:52.102Z,75.80
2022-12-20T18:42:54.965Z,76.00
2022-12-20T18:44:58.095Z,75.80
2022-12-20T18:47:01.739Z,75.20
2022-12-20T18:49:05.952Z,75.10
2022-12-20T18:51:11.821Z,75.50
2022-12-20T18:53:14.765Z,75.70
2022-12-20T18:55:17.783Z,75.80
2022-12-20T18:57:20.542Z,74.80
2022-12-20T18:59:23.717Z,75.40
2022-12-20T19:01:28.704Z,75.80
2022-12-20T19:03:32.226Z,75.70
2022-12-20T19:05:36.470Z,75.70
2022-12-20T19:07:39.372Z,75.70
2022-12-20T19:09:42.171Z,75.40
2022-12-20T19:11:45.282Z,75.50
2022-12-20T19:13:48.955Z,75.50
2022-12-20T19:16:01.122Z,75.30
2022-12-20T19:18:03.963Z,75.30
2022-12-20T19:20:08.272Z,75.00
2022-12-20T19:22:12.999Z,75.30
2022-12-20T19:24:15.933Z,75.60
2022-12-20T19:26:20.543Z,75.30
2022-12-20T19:28:24.017Z,75.30
2022-12-20T19:30:27.818Z,75.20
2022-12-20T19:32:30.834Z,75.40
2022-12-20T19:34:33.654Z,75.70
2022-12-20T19:36:38.825Z,75.10
2022-12-20T19:38:45.643Z,76.40
2022-12-20T19:40:53.325Z,77.70
2022-12-20T19:42:56.269Z,78.60
2022-12-20T19:44:59.030Z,79.00
2022-12-20T19:47:05.032Z,79.30
2022-12-20T19:49:07.991Z,79.30
2022-12-20T19:51:12.540Z,79.40
2022-12-20T19:53:15.304Z,79.50
2022-12-20T19:55:19.515Z,79.80
2022-12-20T19:57:22.333Z,79.40
2022-12-20T19:59:25.109Z,79.10
2022-12-20T20:01:28.417Z,79.40
2022-12-20T20:03:32.495Z,79.30
2022-12-20T20:05:36.195Z,79.20
2022-12-20T20:07:39.033Z,79.30
2022-12-20T20:09:41.810Z,79.40
2022-12-20T20:11:46.044Z,79.60
2022-12-20T20:13:48.941Z,79.60
2022-12-20T20:15:52.545Z,79.60
2022-12-20T20:17:55.768Z,79.90
2022-12-20T20:19:58.916Z,79.90
2022-12-20T20:22:02.654Z,79.90
2022-12-20T20:24:06.286Z,79.60
2022-12-20T20:26:11.053Z,80.00
2022-12-20T20:28:16.069Z,80.10
2022-12-20T20:30:19.149Z,79.80
2022-12-20T20:32:21.943Z,79.30
2022-12-20T20:34:24.833Z,79.50
2022-12-20T20:36:28.053Z,79.40
2022-12-20T20:38:33.032Z,79.30
2022-12-20T20:40:35.906Z,79.50
2022-12-20T20:42:41.510Z,79.40
2022-12-20T20:44:46.280Z,79.20
2022-12-20T20:46:49.204Z,79.00
2022-12-20T20:48:52.075Z,79.10
2022-12-20T20:50:54.944Z,79.10
2022-12-20T20:53:00.044Z,79.10
2022-12-20T20:55:03.138Z,79.30
2022-12-20T20:57:06.081Z,79.50
2022-12-20T20:59:13.444Z,79.50
2022-12-20T21:01:23.016Z,79.70
2022-12-20T21:03:27.286Z,79.60
2022-12-20T21:07:53.598Z,79.80
2022-12-20T21:09:56.975Z,80.00
2022-12-20T21:11:59.954Z,80.00
2022-12-20T21:14:02.917Z,80.00
2022-12-20T21:16:07.396Z,80.10
2022-12-20T21:18:12.074Z,80.20
2022-12-20T21:20:17.509Z,80.30
2022-12-20T21:22:22.399Z,80.30
2022-12-20T21:24:25.197Z,80.10
2022-12-20T21:26:28.032Z,80.10
2022-12-20T21:28:31.571Z,80.30
2022-12-20T21:30:34.802Z,80.30
2022-12-20T21:32:37.705Z,80.30
2022-12-20T21:34:42.072Z,80.40
2022-12-20T21:36:44.876Z,80.40
2022-12-20T21:38:51.396Z,80.60
2022-12-20T21:40:59.423Z,80.30
2022-12-20T21:43:02.193Z,80.40
2022-12-20T21:45:05.498Z,80.20
2022-12-20T21:47:08.579Z,80.10
2022-12-20T21:49:13.001Z,80.10
2022-12-20T21:51:19.826Z,80.30
2022-12-20T21:53:22.622Z,80.00
2022-12-20T21:55:25.436Z,79.90
2022-12-20T21:57:28.264Z,80.00
2022-12-20T21:59:31.219Z,80.00
2022-12-20T22:01:34.514Z,80.20
2022-12-20T22:03:38.473Z,80.30
2022-12-20T22:05:46.923Z,80.50
2022-12-20T22:07:51.745Z,80.60
2022-12-20T22:09:54.555Z,80.50
2022-12-20T22:11:57.449Z,80.30
2022-12-20T22:14:00.559Z,80.40
2022-12-20T22:16:07.914Z,80.40
2022-12-20T22:18:10.822Z,80.40
2022-12-20T22:20:14.054Z,80.40
2022-12-20T22:22:20.027Z,80.30
2022-12-20T22:24:24.437Z,80.60
2022-12-20T22:26:29.186Z,80.50
2022-12-20T22:28:32.119Z,80.70
2022-12-20T22:30:35.247Z,80.50
2022-12-20T22:32:38.029Z,80.60
2022-12-20T22:34:40.830Z,80.60
2022-12-20T22:36:43.701Z,80.80
2022-12-20T22:38:46.916Z,80.90
2022-12-20T22:40:51.895Z,81.00
2022-12-20T22:42:54.676Z,81.00
2022-12-20T22:44:57.566Z,81.10
2022-12-20T22:47:00.481Z,80.90
2022-12-20T22:49:03.395Z,81.00
2022-12-20T22:51:07.743Z,81.10
2022-12-20T22:53:10.547Z,81.00
2022-12-20T22:55:13.663Z,81.10
2022-12-20T22:57:18.021Z,81.10
2022-12-20T22:59:21.059Z,81.10
2022-12-20T23:01:24.259Z,81.10
2022-12-20T23:03:28.238Z,81.10
2022-12-20T23:05:31.134Z,81.20
2022-12-20T23:07:33.960Z,81.30
2022-12-20T23:09:36.728Z,81.40
2022-12-20T23:11:57.244Z,81.60
2022-12-20T23:14:18.922Z,81.60
2022-12-20T23:16:22.946Z,82.30
2022-12-20T23:18:25.883Z,81.60
2022-12-20T23:20:46.295Z,81.70
2022-12-20T23:22:49.144Z,81.80
2022-12-20T23:24:51.940Z,81.90
2022-12-20T23:26:54.794Z,81.80
2022-12-20T23:28:57.780Z,81.90
2022-12-20T23:31:04.337Z,81.90
2022-12-20T23:33:07.648Z,82.00
2022-12-20T23:35:12.805Z,81.90
2022-12-20T23:37:15.758Z,81.90
2022-12-20T23:39:18.627Z,82.00
2022-12-20T23:41:21.745Z,82.10
2022-12-20T23:43:24.534Z,82.10
2022-12-20T23:45:27.342Z,82.10
2022-12-20T23:47:32.126Z,82.10
2022-12-20T23:49:34.936Z,82.20
2022-12-20T23:51:37.809Z,82.10
2022-12-20T23:53:39.973Z,82.00
2022-12-20T23:55:42.782Z,82.10
2022-12-20T23:57:45.580Z,82.20
2022-12-20T23:59:48.608Z,82.10
